sensor_id;sensor_type;location;lat;lon;timestamp;pressure;altitude;pressure_sealevel;temperature;humidity
54236;BME280;40151;43.606;1.472;2023-03-04T00:01:11;99996.31;;;17.98;44.57
54236;BME280;40151;43.606;1.472;2023-03-04T00:03:36;100002.53;;;17.97;44.37
54236;BME280;40151;43.606;1.472;2023-03-04T00:06:02;99999.03;;;17.96;44.32
54236;BME280;40151;43.606;1.472;2023-03-04T00:08:28;99999.13;;;17.93;44.32
54236;BME280;40151;43.606;1.472;2023-03-04T00:10:53;99999.03;;;17.96;44.34
54236;BME280;40151;43.606;1.472;2023-03-04T00:13:18;100003.56;;;17.93;44.15
54236;BME280;40151;43.606;1.472;2023-03-04T00:15:46;99999.13;;;17.93;44.40
54236;BME280;40151;43.606;1.472;2023-03-04T00:18:12;99999.13;;;17.93;44.48
54236;BME280;40151;43.606;1.472;2023-03-04T00:20:37;100001.84;;;17.92;44.37
54236;BME280;40151;43.606;1.472;2023-03-04T00:23:03;100002.81;;;17.89;44.50
54236;BME280;40151;43.606;1.472;2023-03-04T00:25:28;100005.34;;;17.92;44.41
54236;BME280;40151;43.606;1.472;2023-03-04T00:27:53;100002.94;;;17.86;44.32
54236;BME280;40151;43.606;1.472;2023-03-04T00:30:19;100002.94;;;17.86;44.05
54236;BME280;40151;43.606;1.472;2023-03-04T00:32:44;100003.66;;;17.90;44.10
54236;BME280;40151;43.606;1.472;2023-03-04T00:35:10;100008.22;;;17.86;44.36
54236;BME280;40151;43.606;1.472;2023-03-04T00:37:35;100006.50;;;17.85;44.26
54236;BME280;40151;43.606;1.472;2023-03-04T00:40:01;100005.63;;;17.84;44.12
54236;BME280;40151;43.606;1.472;2023-03-04T00:42:26;100002.19;;;17.82;44.29
54236;BME280;40151;43.606;1.472;2023-03-04T00:44:52;100008.34;;;17.83;44.28
54236;BME280;40151;43.606;1.472;2023-03-04T00:47:17;100011.00;;;17.83;43.93
54236;BME280;40151;43.606;1.472;2023-03-04T00:49:43;100002.25;;;17.81;44.37
54236;BME280;40151;43.606;1.472;2023-03-04T00:52:08;100012.91;;;17.79;44.30
54236;BME280;40151;43.606;1.472;2023-03-04T00:54:34;100005.75;;;17.81;44.19
54236;BME280;40151;43.606;1.472;2023-03-04T00:56:59;100009.44;;;17.77;44.10
54236;BME280;40151;43.606;1.472;2023-03-04T00:59:25;100005.88;;;17.78;44.25
54236;BME280;40151;43.606;1.472;2023-03-04T01:01:50;100000.69;;;17.77;43.89
54236;BME280;40151;43.606;1.472;2023-03-04T01:04:16;99998.88;;;17.77;44.29
54236;BME280;40151;43.606;1.472;2023-03-04T01:06:41;99998.03;;;17.77;43.90
54236;BME280;40151;43.606;1.472;2023-03-04T01:09:06;100003.31;;;17.77;44.01
54236;BME280;40151;43.606;1.472;2023-03-04T01:11:32;99991.94;;;17.75;44.00
54236;BME280;40151;43.606;1.472;2023-03-04T01:13:58;99989.28;;;17.75;43.96
54236;BME280;40151;43.606;1.472;2023-03-04T01:16:23;99992.06;;;17.71;44.14
54236;BME280;40151;43.606;1.472;2023-03-04T01:18:49;99984.25;;;17.68;43.99
54236;BME280;40151;43.606;1.472;2023-03-04T01:21:14;99987.72;;;17.70;44.30
54236;BME280;40151;43.606;1.472;2023-03-04T01:23:40;99994.94;;;17.65;43.84
54236;BME280;40151;43.606;1.472;2023-03-04T01:26:05;99993.22;;;17.64;44.01
54236;BME280;40151;43.606;1.472;2023-03-04T01:28:30;99995.88;;;17.64;43.85
54236;BME280;40151;43.606;1.472;2023-03-04T01:31:03;99987.97;;;17.64;43.85
54236;BME280;40151;43.606;1.472;2023-03-04T01:33:30;99987.97;;;17.64;43.81
54236;BME280;40151;43.606;1.472;2023-03-04T01:35:56;99987.03;;;17.65;44.21
54236;BME280;40151;43.606;1.472;2023-03-04T01:38:22;99984.50;;;17.62;43.78
54236;BME280;40151;43.606;1.472;2023-03-04T01:40:48;99979.16;;;17.64;44.10
54236;BME280;40151;43.606;1.472;2023-03-04T01:43:23;99972.22;;;17.61;43.80
54236;BME280;40151;43.606;1.472;2023-03-04T01:45:50;99976.63;;;17.61;43.92
54236;BME280;40151;43.606;1.472;2023-03-04T01:48:29;99974.06;;;17.59;44.01
54236;BME280;40151;43.606;1.472;2023-03-04T01:50:56;99967.94;;;17.58;44.00
54236;BME280;40151;43.606;1.472;2023-03-04T01:53:25;99969.78;;;17.56;43.62
54236;BME280;40151;43.606;1.472;2023-03-04T01:55:53;99965.47;;;17.54;44.11
54236;BME280;40151;43.606;1.472;2023-03-04T01:58:20;99965.47;;;17.54;43.80
54236;BME280;40151;43.606;1.472;2023-03-04T02:00:46;99963.63;;;17.56;44.13
54236;BME280;40151;43.606;1.472;2023-03-04T02:03:13;99961.97;;;17.53;44.23
54236;BME280;40151;43.606;1.472;2023-03-04T02:05:45;99953.19;;;17.53;43.94
54236;BME280;40151;43.606;1.472;2023-03-04T02:08:12;99952.38;;;17.51;43.86
54236;BME280;40151;43.606;1.472;2023-03-04T02:10:41;99956.88;;;17.49;43.96
54236;BME280;40151;43.606;1.472;2023-03-04T02:13:07;99950.81;;;17.47;44.05
54236;BME280;40151;43.606;1.472;2023-03-04T02:15:32;99951.69;;;17.45;43.76
54236;BME280;40151;43.606;1.472;2023-03-04T02:17:58;99948.03;;;17.50;44.41
54236;BME280;40151;43.606;1.472;2023-03-04T02:28:33;99940.34;;;17.43;43.97
54236;BME280;40151;43.606;1.472;2023-03-04T02:30:58;99945.63;;;17.43;44.02
54236;BME280;40151;43.606;1.472;2023-03-04T02:33:24;99941.28;;;17.42;43.81
54236;BME280;40151;43.606;1.472;2023-03-04T02:35:50;99937.75;;;17.42;43.64
54236;BME280;40151;43.606;1.472;2023-03-04T02:38:15;99937.84;;;17.40;43.71
54236;BME280;40151;43.606;1.472;2023-03-04T02:40:43;99937.84;;;17.40;43.90
54236;BME280;40151;43.606;1.472;2023-03-04T02:43:11;99930.03;;;17.37;43.91
54236;BME280;40151;43.606;1.472;2023-03-04T02:45:43;99934.56;;;17.34;43.74
54236;BME280;40151;43.606;1.472;2023-03-04T02:48:10;99935.38;;;17.36;44.14
54236;BME280;40151;43.606;1.472;2023-03-04T02:50:48;99926.59;;;17.35;43.92
54236;BME280;40151;43.606;1.472;2023-03-04T02:53:14;99917.81;;;17.35;43.72
54236;BME280;40151;43.606;1.472;2023-03-04T02:55:40;99924.94;;;17.33;44.02
54236;BME280;40151;43.606;1.472;2023-03-04T02:58:06;99921.38;;;17.34;43.81
54236;BME280;40151;43.606;1.472;2023-03-04T03:00:32;99911.91;;;17.28;43.76
54236;BME280;40151;43.606;1.472;2023-03-04T03:02:57;99916.28;;;17.29;43.85
54236;BME280;40151;43.606;1.472;2023-03-04T03:05:28;99918.06;;;17.28;44.02
54236;BME280;40151;43.606;1.472;2023-03-04T03:07:54;99918.09;;;17.27;43.69
54236;BME280;40151;43.606;1.472;2023-03-04T03:10:19;99919.91;;;17.26;43.82
54236;BME280;40151;43.606;1.472;2023-03-04T03:12:45;99929.47;;;17.29;43.60
54236;BME280;40151;43.606;1.472;2023-03-04T03:15:10;99929.59;;;17.26;43.77
54236;BME280;40151;43.606;1.472;2023-03-04T03:17:36;99926.03;;;17.27;43.83
54236;BME280;40151;43.606;1.472;2023-03-04T03:20:02;99919.97;;;17.25;43.77
54236;BME280;40151;43.606;1.472;2023-03-04T03:22:27;99926.16;;;17.24;44.02
54236;BME280;40151;43.606;1.472;2023-03-04T03:24:53;99919.97;;;17.25;43.84
54236;BME280;40151;43.606;1.472;2023-03-04T03:27:18;99914.72;;;17.23;43.83
54236;BME280;40151;43.606;1.472;2023-03-04T03:29:43;99916.63;;;17.20;43.94
54236;BME280;40151;43.606;1.472;2023-03-04T03:32:09;99906.88;;;17.22;43.94
54236;BME280;40151;43.606;1.472;2023-03-04T03:34:34;99912.22;;;17.20;43.69
54236;BME280;40151;43.606;1.472;2023-03-04T03:37:00;99910.56;;;17.17;43.84
54236;BME280;40151;43.606;1.472;2023-03-04T03:39:25;99913.19;;;17.17;43.98
54236;BME280;40151;43.606;1.472;2023-03-04T03:41:51;99909.69;;;17.17;43.77
54236;BME280;40151;43.606;1.472;2023-03-04T03:44:16;99917.66;;;17.15;43.99
54236;BME280;40151;43.606;1.472;2023-03-04T03:46:41;99918.56;;;17.14;43.99
54236;BME280;40151;43.606;1.472;2023-03-04T03:49:07;99918.56;;;17.14;44.10
54236;BME280;40151;43.606;1.472;2023-03-04T03:51:32;99914.19;;;17.15;43.79
54236;BME280;40151;43.606;1.472;2023-03-04T03:53:58;99914.22;;;17.13;43.83
54236;BME280;40151;43.606;1.472;2023-03-04T03:56:23;99912.56;;;17.11;43.89
54236;BME280;40151;43.606;1.472;2023-03-04T03:58:48;99909.94;;;17.11;44.01
54236;BME280;40151;43.606;1.472;2023-03-04T04:01:14;99913.50;;;17.10;43.82
54236;BME280;40151;43.606;1.472;2023-03-04T04:03:39;99911.69;;;17.10;43.69
54236;BME280;40151;43.606;1.472;2023-03-04T04:06:05;99921.34;;;17.11;43.64
54236;BME280;40151;43.606;1.472;2023-03-04T04:08:31;99921.44;;;17.08;43.86
54236;BME280;40151;43.606;1.472;2023-03-04T04:10:57;99912.75;;;17.06;43.83
54236;BME280;40151;43.606;1.472;2023-03-04T04:13:23;99916.31;;;17.05;44.05
54236;BME280;40151;43.606;1.472;2023-03-04T04:15:50;99912.75;;;17.06;43.92
54236;BME280;40151;43.606;1.472;2023-03-04T04:18:16;99908.44;;;17.03;43.50
54236;BME280;40151;43.606;1.472;2023-03-04T04:20:41;99912.84;;;17.03;43.96
54236;BME280;40151;43.606;1.472;2023-03-04T04:23:06;99913.78;;;17.00;43.87
54236;BME280;40151;43.606;1.472;2023-03-04T04:25:32;99914.75;;;16.98;43.80
54236;BME280;40151;43.606;1.472;2023-03-04T04:27:57;99904.09;;;17.01;43.67
54236;BME280;40151;43.606;1.472;2023-03-04T04:30:23;99903.28;;;16.99;43.84
54236;BME280;40151;43.606;1.472;2023-03-04T04:32:49;99901.47;;;17.01;43.59
54236;BME280;40151;43.606;1.472;2023-03-04T04:35:14;99898.94;;;16.98;43.68
54236;BME280;40151;43.606;1.472;2023-03-04T04:37:40;99896.38;;;16.96;43.94
54236;BME280;40151;43.606;1.472;2023-03-04T04:40:06;99896.38;;;16.96;43.82
54236;BME280;40151;43.606;1.472;2023-03-04T04:42:32;99897.22;;;16.97;43.59
54236;BME280;40151;43.606;1.472;2023-03-04T04:44:57;99901.66;;;16.96;43.92
54236;BME280;40151;43.606;1.472;2023-03-04T04:47:23;99904.34;;;16.95;43.97
54236;BME280;40151;43.606;1.472;2023-03-04T04:49:48;99902.53;;;16.95;44.01
54236;BME280;40151;43.606;1.472;2023-03-04T04:52:13;99903.50;;;16.92;43.84
54236;BME280;40151;43.606;1.472;2023-03-04T04:54:39;99902.72;;;16.90;43.72
54236;BME280;40151;43.606;1.472;2023-03-04T04:57:04;99901.75;;;16.93;43.65
54236;BME280;40151;43.606;1.472;2023-03-04T04:59:30;99901.94;;;16.88;43.30
54236;BME280;40151;43.606;1.472;2023-03-04T05:01:56;99904.44;;;16.91;43.63
54236;BME280;40151;43.606;1.472;2023-03-04T05:04:21;99906.28;;;16.89;43.87
54236;BME280;40151;43.606;1.472;2023-03-04T05:06:46;99904.56;;;16.88;43.84
54236;BME280;40151;43.606;1.472;2023-03-04T05:09:12;99908.00;;;16.90;43.84
54236;BME280;40151;43.606;1.472;2023-03-04T05:11:37;99901.94;;;16.88;43.85
54236;BME280;40151;43.606;1.472;2023-03-04T05:14:03;99904.56;;;16.88;43.76
54236;BME280;40151;43.606;1.472;2023-03-04T05:16:28;99910.75;;;16.87;43.82
54236;BME280;40151;43.606;1.472;2023-03-04T05:18:54;99905.53;;;16.86;43.69
54236;BME280;40151;43.606;1.472;2023-03-04T05:21:19;99912.56;;;16.85;44.01
54236;BME280;40151;43.606;1.472;2023-03-04T05:23:45;99912.56;;;16.85;43.73
54236;BME280;40151;43.606;1.472;2023-03-04T05:26:14;99905.59;;;16.84;43.79
54236;BME280;40151;43.606;1.472;2023-03-04T05:28:40;99909.09;;;16.85;43.68
54236;BME280;40151;43.606;1.472;2023-03-04T05:31:05;99916.19;;;16.83;43.89
54236;BME280;40151;43.606;1.472;2023-03-04T05:33:31;99915.44;;;16.79;43.70
54236;BME280;40151;43.606;1.472;2023-03-04T05:35:56;99920.59;;;16.82;43.75
54236;BME280;40151;43.606;1.472;2023-03-04T05:38:22;99914.50;;;16.80;43.83
54236;BME280;40151;43.606;1.472;2023-03-04T05:40:48;99927.59;;;16.83;43.69
54236;BME280;40151;43.606;1.472;2023-03-04T05:43:14;99917.06;;;16.83;43.73
54236;BME280;40151;43.606;1.472;2023-03-04T05:45:40;99931.16;;;16.82;43.95
54236;BME280;40151;43.606;1.472;2023-03-04T05:48:07;99920.69;;;16.79;43.79
54236;BME280;40151;43.606;1.472;2023-03-04T05:50:33;99931.25;;;16.79;43.72
54236;BME280;40151;43.606;1.472;2023-03-04T05:52:59;99924.25;;;16.78;43.82
54236;BME280;40151;43.606;1.472;2023-03-04T05:55:25;99926.03;;;16.77;43.93
54236;BME280;40151;43.606;1.472;2023-03-04T05:57:52;99933.94;;;16.77;43.54
54236;BME280;40151;43.606;1.472;2023-03-04T06:00:17;99930.50;;;16.75;43.78
54236;BME280;40151;43.606;1.472;2023-03-04T06:02:43;99936.72;;;16.73;43.72
54236;BME280;40151;43.606;1.472;2023-03-04T06:05:09;99938.44;;;16.74;43.82
54236;BME280;40151;43.606;1.472;2023-03-04T06:07:35;99935.94;;;16.71;44.03
54236;BME280;40151;43.606;1.472;2023-03-04T06:10:00;99940.28;;;16.72;43.68
54236;BME280;40151;43.606;1.472;2023-03-04T06:12:26;99947.28;;;16.73;43.82
54236;BME280;40151;43.606;1.472;2023-03-04T06:14:53;99946.47;;;16.71;43.80
54236;BME280;40151;43.606;1.472;2023-03-04T06:17:18;99943.94;;;16.68;43.65
54236;BME280;40151;43.606;1.472;2023-03-04T06:19:44;99947.31;;;16.71;43.64
54236;BME280;40151;43.606;1.472;2023-03-04T06:22:10;99953.56;;;16.69;43.76
54236;BME280;40151;43.606;1.472;2023-03-04T06:24:35;99951.09;;;16.64;43.95
54236;BME280;40151;43.606;1.472;2023-03-04T06:27:01;99950.19;;;16.65;43.72
54236;BME280;40151;43.606;1.472;2023-03-04T06:29:26;99958.16;;;16.63;44.02
54236;BME280;40151;43.606;1.472;2023-03-04T06:31:52;99959.88;;;16.64;43.59
54236;BME280;40151;43.606;1.472;2023-03-04T06:34:18;99963.53;;;16.60;43.80
54236;BME280;40151;43.606;1.472;2023-03-04T06:36:43;99972.22;;;16.62;43.55
54236;BME280;40151;43.606;1.472;2023-03-04T06:39:09;99973.13;;;16.61;43.88
54236;BME280;40151;43.606;1.472;2023-03-04T06:41:35;99977.50;;;16.62;43.89
54236;BME280;40151;43.606;1.472;2023-03-04T06:44:00;99973.09;;;16.63;43.64
54236;BME280;40151;43.606;1.472;2023-03-04T06:46:26;99978.44;;;16.60;43.80
54236;BME280;40151;43.606;1.472;2023-03-04T06:48:51;99988.09;;;16.61;43.54
54236;BME280;40151;43.606;1.472;2023-03-04T06:51:17;99986.34;;;16.60;43.67
54236;BME280;40151;43.606;1.472;2023-03-04T06:53:43;99988.16;;;16.59;43.75
54236;BME280;40151;43.606;1.472;2023-03-04T06:56:11;99992.59;;;16.57;43.75
54236;BME280;40151;43.606;1.472;2023-03-04T06:58:37;99995.38;;;16.53;43.77
54236;BME280;40151;43.606;1.472;2023-03-04T07:01:17;100002.38;;;16.54;43.66
54236;BME280;40151;43.606;1.472;2023-03-04T07:03:43;100004.97;;;16.55;43.62
54236;BME280;40151;43.606;1.472;2023-03-04T07:06:11;100004.97;;;16.55;43.96
54236;BME280;40151;43.606;1.472;2023-03-04T07:08:37;100004.03;;;16.56;43.52
54236;BME280;40151;43.606;1.472;2023-03-04T07:11:02;100007.59;;;16.55;43.73
54236;BME280;40151;43.606;1.472;2023-03-04T07:13:28;100006.81;;;16.53;43.78
54236;BME280;40151;43.606;1.472;2023-03-04T07:15:53;100011.25;;;16.51;43.81
54236;BME280;40151;43.606;1.472;2023-03-04T07:18:18;100010.34;;;16.52;43.57
54236;BME280;40151;43.606;1.472;2023-03-04T07:20:44;100012.13;;;16.51;43.54
54236;BME280;40151;43.606;1.472;2023-03-04T07:23:09;100009.53;;;16.50;43.34
54236;BME280;40151;43.606;1.472;2023-03-04T07:25:35;100011.25;;;16.51;43.81
54236;BME280;40151;43.606;1.472;2023-03-04T07:28:00;100015.72;;;16.49;43.63
54236;BME280;40151;43.606;1.472;2023-03-04T07:30:25;100004.25;;;16.50;43.61
54236;BME280;40151;43.606;1.472;2023-03-04T07:32:51;100011.34;;;16.48;43.52
54236;BME280;40151;43.606;1.472;2023-03-04T07:35:17;100016.59;;;16.49;43.44
54236;BME280;40151;43.606;1.472;2023-03-04T07:37:42;100025.38;;;16.48;43.73
54236;BME280;40151;43.606;1.472;2023-03-04T07:40:08;100027.16;;;16.48;43.38
54236;BME280;40151;43.606;1.472;2023-03-04T07:42:34;100027.16;;;16.48;43.69
54236;BME280;40151;43.606;1.472;2023-03-04T07:44:59;100027.25;;;16.45;43.74
54236;BME280;40151;43.606;1.472;2023-03-04T07:47:26;100029.88;;;16.45;43.51
54236;BME280;40151;43.606;1.472;2023-03-04T07:49:52;100030.81;;;16.44;43.50
54236;BME280;40151;43.606;1.472;2023-03-04T07:52:18;100034.31;;;16.44;43.76
54236;BME280;40151;43.606;1.472;2023-03-04T07:54:43;100036.94;;;16.44;43.83
54236;BME280;40151;43.606;1.472;2023-03-04T07:57:08;100041.38;;;16.42;43.38
54236;BME280;40151;43.606;1.472;2023-03-04T07:59:34;100040.50;;;16.43;43.38
54236;BME280;40151;43.606;1.472;2023-03-04T08:01:59;100039.63;;;16.43;43.71
54236;BME280;40151;43.606;1.472;2023-03-04T08:04:25;100038.88;;;16.39;43.53
54236;BME280;40151;43.606;1.472;2023-03-04T08:06:50;100032.72;;;16.38;43.51
54236;BME280;40151;43.606;1.472;2023-03-04T08:09:16;100041.47;;;16.41;43.40
54236;BME280;40151;43.606;1.472;2023-03-04T08:11:42;100045.91;;;16.38;43.55
54236;BME280;40151;43.606;1.472;2023-03-04T08:14:11;100041.53;;;16.37;43.45
54236;BME280;40151;43.606;1.472;2023-03-04T08:16:37;100036.28;;;16.37;43.66
54236;BME280;40151;43.606;1.472;2023-03-04T08:19:03;100036.28;;;16.37;43.63
54236;BME280;40151;43.606;1.472;2023-03-04T08:21:29;100040.69;;;16.37;43.62
54236;BME280;40151;43.606;1.472;2023-03-04T08:23:57;100031.13;;;16.34;43.57
54236;BME280;40151;43.606;1.472;2023-03-04T08:26:38;100040.75;;;16.35;43.29
54236;BME280;40151;43.606;1.472;2023-03-04T08:29:06;100038.09;;;16.35;43.69
54236;BME280;40151;43.606;1.472;2023-03-04T08:31:32;100042.63;;;16.32;43.51
54236;BME280;40151;43.606;1.472;2023-03-04T08:33:57;100044.38;;;16.31;43.43
54236;BME280;40151;43.606;1.472;2023-03-04T08:36:23;100042.53;;;16.33;43.56
54236;BME280;40151;43.606;1.472;2023-03-04T08:38:48;100033.84;;;16.31;43.38
54236;BME280;40151;43.606;1.472;2023-03-04T08:41:14;100034.72;;;16.32;43.51
54236;BME280;40151;43.606;1.472;2023-03-04T08:43:40;100030.25;;;16.34;43.28
54236;BME280;40151;43.606;1.472;2023-03-04T08:46:05;100030.28;;;16.32;43.44
54236;BME280;40151;43.606;1.472;2023-03-04T08:48:31;100038.19;;;16.32;43.54
54236;BME280;40151;43.606;1.472;2023-03-04T08:50:57;100036.47;;;16.31;43.73
54236;BME280;40151;43.606;1.472;2023-03-04T08:53:22;100031.22;;;16.31;43.36
54236;BME280;40151;43.606;1.472;2023-03-04T08:55:49;100036.47;;;16.31;43.31
54236;BME280;40151;43.606;1.472;2023-03-04T08:58:15;100032.94;;;16.32;43.51
54236;BME280;40151;43.606;1.472;2023-03-04T09:00:44;100032.09;;;16.32;43.44
54236;BME280;40151;43.606;1.472;2023-03-04T09:03:13;100040.06;;;16.29;43.59
54236;BME280;40151;43.606;1.472;2023-03-04T09:05:39;100039.91;;;16.33;43.40
54236;BME280;40151;43.606;1.472;2023-03-04T09:08:05;100043.38;;;16.35;43.41
54236;BME280;40151;43.606;1.472;2023-03-04T09:10:30;100036.38;;;16.34;43.60
54236;BME280;40151;43.606;1.472;2023-03-04T09:12:57;100037.34;;;16.32;43.57
54236;BME280;40151;43.606;1.472;2023-03-04T09:15:22;100036.38;;;16.34;43.68
54236;BME280;40151;43.606;1.472;2023-03-04T09:17:47;100038.09;;;16.35;43.49
54236;BME280;40151;43.606;1.472;2023-03-04T09:20:13;100038.06;;;16.37;43.40
54236;BME280;40151;43.606;1.472;2023-03-04T09:22:39;100037.16;;;16.38;43.68
54236;BME280;40151;43.606;1.472;2023-03-04T09:25:06;100040.63;;;16.38;43.48
54236;BME280;40151;43.606;1.472;2023-03-04T09:27:32;100040.69;;;16.37;43.44
54236;BME280;40151;43.606;1.472;2023-03-04T09:29:57;100032.72;;;16.38;43.39
54236;BME280;40151;43.606;1.472;2023-03-04T09:32:23;100038.00;;;16.38;43.45
54236;BME280;40151;43.606;1.472;2023-03-04T09:34:48;100035.44;;;16.37;43.68
54236;BME280;40151;43.606;1.472;2023-03-04T09:37:14;100034.44;;;16.40;43.68
54236;BME280;40151;43.606;1.472;2023-03-04T09:39:39;100045.81;;;16.42;43.50
54236;BME280;40151;43.606;1.472;2023-03-04T09:42:07;100037.16;;;16.38;43.26
54236;BME280;40151;43.606;1.472;2023-03-04T09:44:37;100040.53;;;16.42;43.66
54236;BME280;40151;43.606;1.472;2023-03-04T09:47:10;100036.06;;;16.44;43.37
54236;BME280;40151;43.606;1.472;2023-03-04T09:49:39;100034.28;;;16.46;43.48
54236;BME280;40151;43.606;1.472;2023-03-04T10:00:20;100033.28;;;16.48;43.50
54236;BME280;40151;43.606;1.472;2023-03-04T10:10:53;100037.59;;;16.51;43.58
54236;BME280;40151;43.606;1.472;2023-03-04T10:13:55;100034.06;;;16.52;43.82
54236;BME280;40151;43.606;1.472;2023-03-04T10:16:25;100030.50;;;16.53;43.49
54236;BME280;40151;43.606;1.472;2023-03-04T10:21:47;100027.88;;;16.53;43.85
54236;BME280;40151;43.606;1.472;2023-03-04T10:24:19;100019.06;;;16.54;43.69
54236;BME280;40151;43.606;1.472;2023-03-04T10:26:51;100018.09;;;16.57;43.30
54236;BME280;40151;43.606;1.472;2023-03-04T10:29:20;100023.31;;;16.58;43.57
54236;BME280;40151;43.606;1.472;2023-03-04T10:31:46;100014.59;;;16.56;43.68
54236;BME280;40151;43.606;1.472;2023-03-04T10:34:15;100011.03;;;16.57;43.53
54236;BME280;40151;43.606;1.472;2023-03-04T10:36:48;100012.78;;;16.58;43.67
54236;BME280;40151;43.606;1.472;2023-03-04T10:39:31;100009.22;;;16.59;43.40
54236;BME280;40151;43.606;1.472;2023-03-04T10:42:04;100012.66;;;16.61;43.58
54236;BME280;40151;43.606;1.472;2023-03-04T10:44:32;100010.94;;;16.60;43.40
54236;BME280;40151;43.606;1.472;2023-03-04T10:46:58;100007.41;;;16.61;43.67
54236;BME280;40151;43.606;1.472;2023-03-04T10:49:26;100000.31;;;16.63;43.47
54236;BME280;40151;43.606;1.472;2023-03-04T10:52:28;100005.59;;;16.63;43.56
54236;BME280;40151;43.606;1.472;2023-03-04T10:55:00;100005.50;;;16.65;43.42
54236;BME280;40151;43.606;1.472;2023-03-04T10:57:37;100007.31;;;16.64;43.39
54236;BME280;40151;43.606;1.472;2023-03-04T11:02:42;100001.16;;;16.64;43.56
54236;BME280;40151;43.606;1.472;2023-03-04T11:07:44;99991.38;;;16.68;43.57
54236;BME280;40151;43.606;1.472;2023-03-04T11:10:24;99987.03;;;16.67;43.59
54236;BME280;40151;43.606;1.472;2023-03-04T11:12:50;99990.44;;;16.69;43.36
54236;BME280;40151;43.606;1.472;2023-03-04T11:15:24;99977.28;;;16.69;43.38
54236;BME280;40151;43.606;1.472;2023-03-04T11:18:08;99982.44;;;16.72;43.53
54236;BME280;40151;43.606;1.472;2023-03-04T11:20:46;99977.19;;;16.72;43.62
54236;BME280;40151;43.606;1.472;2023-03-04T11:26:06;99972.66;;;16.75;43.39
54236;BME280;40151;43.606;1.472;2023-03-04T11:31:12;99982.25;;;16.78;43.76
54236;BME280;40151;43.606;1.472;2023-03-04T11:36:24;99978.59;;;16.82;43.52
54236;BME280;40151;43.606;1.472;2023-03-04T11:38:53;99965.34;;;16.84;43.50
54236;BME280;40151;43.606;1.472;2023-03-04T11:41:29;99968.78;;;16.86;43.52
54236;BME280;40151;43.606;1.472;2023-03-04T11:43:57;99973.16;;;16.87;43.43
54236;BME280;40151;43.606;1.472;2023-03-04T11:54:28;99951.88;;;16.91;43.22
54236;BME280;40151;43.606;1.472;2023-03-04T11:56:59;99951.88;;;16.91;43.15
54236;BME280;40151;43.606;1.472;2023-03-04T11:59:47;99942.16;;;16.94;43.35
54236;BME280;40151;43.606;1.472;2023-03-04T12:02:22;99942.09;;;16.95;43.55
54236;BME280;40151;43.606;1.472;2023-03-04T12:05:22;99939.41;;;16.97;43.52
54236;BME280;40151;43.606;1.472;2023-03-04T12:08:13;99935.84;;;16.98;43.45
54236;BME280;40151;43.606;1.472;2023-03-04T12:10:46;99928.84;;;16.97;43.35
54236;BME280;40151;43.606;1.472;2023-03-04T12:30:02;99906.59;;;17.06;43.23
54236;BME280;40151;43.606;1.472;2023-03-04T12:40:25;99885.41;;;17.09;43.32
54236;BME280;40151;43.606;1.472;2023-03-04T12:43:14;99874.84;;;17.09;43.30
54236;BME280;40151;43.606;1.472;2023-03-04T12:51:39;99866.75;;;17.13;43.21
54236;BME280;40151;43.606;1.472;2023-03-04T12:56:57;99854.50;;;17.12;43.26
54236;BME280;40151;43.606;1.472;2023-03-04T12:59:25;99857.94;;;17.14;43.31
54236;BME280;40151;43.606;1.472;2023-03-04T13:02:03;99849.97;;;17.16;43.26
54236;BME280;40151;43.606;1.472;2023-03-04T13:04:56;99847.28;;;17.17;43.36
54236;BME280;40151;43.606;1.472;2023-03-04T13:07:46;99843.72;;;17.18;43.18
54236;BME280;40151;43.606;1.472;2023-03-04T13:10:17;99836.72;;;17.17;43.18
54236;BME280;40151;43.606;1.472;2023-03-04T13:13:00;99821.75;;;17.18;43.01
54236;BME280;40151;43.606;1.472;2023-03-04T13:15:34;99822.63;;;17.18;43.21
54236;BME280;40151;43.606;1.472;2023-03-04T13:23:41;99826.03;;;17.21;43.17
54236;BME280;40151;43.606;1.472;2023-03-04T13:26:39;99824.28;;;17.21;43.38
54236;BME280;40151;43.606;1.472;2023-03-04T13:29:29;99823.34;;;17.22;43.52
54236;BME280;40151;43.606;1.472;2023-03-04T13:37:40;99819.75;;;17.25;43.39
54236;BME280;40151;43.606;1.472;2023-03-04T13:42:49;99814.41;;;17.26;43.16
54236;BME280;40151;43.606;1.472;2023-03-04T13:45:34;99818.81;;;17.26;43.29
54236;BME280;40151;43.606;1.472;2023-03-04T13:48:00;99816.16;;;17.26;43.34
54236;BME280;40151;43.606;1.472;2023-03-04T13:50:36;99809.97;;;17.27;43.41
54236;BME280;40151;43.606;1.472;2023-03-04T13:53:28;99809.88;;;17.30;43.06
54236;BME280;40151;43.606;1.472;2023-03-04T13:58:51;99799.31;;;17.30;43.25
54236;BME280;40151;43.606;1.472;2023-03-04T14:01:26;99795.75;;;17.31;43.22
54236;BME280;40151;43.606;1.472;2023-03-04T14:03:53;99800.09;;;17.32;43.23
54236;BME280;40151;43.606;1.472;2023-03-04T14:06:22;99797.47;;;17.32;43.41
54236;BME280;40151;43.606;1.472;2023-03-04T14:08:49;99796.53;;;17.33;43.39
54236;BME280;40151;43.606;1.472;2023-03-04T14:13:53;99790.34;;;17.34;43.33
54236;BME280;40151;43.606;1.472;2023-03-04T14:16:21;99781.53;;;17.35;43.23
54236;BME280;40151;43.606;1.472;2023-03-04T14:21:51;99776.09;;;17.38;43.30
54236;BME280;40151;43.606;1.472;2023-03-04T14:24:19;99778.75;;;17.38;43.16
54236;BME280;40151;43.606;1.472;2023-03-04T14:26:46;99767.28;;;17.39;43.24
54236;BME280;40151;43.606;1.472;2023-03-04T14:29:41;99769.06;;;17.39;43.20
54236;BME280;40151;43.606;1.472;2023-03-04T14:32:06;99764.56;;;17.41;43.57
54236;BME280;40151;43.606;1.472;2023-03-04T14:34:36;99761.94;;;17.41;43.40
54236;BME280;40151;43.606;1.472;2023-03-04T14:37:03;99756.59;;;17.42;43.22
54236;BME280;40151;43.606;1.472;2023-03-04T14:39:41;99757.44;;;17.43;43.15
54236;BME280;40151;43.606;1.472;2023-03-04T14:42:09;99752.16;;;17.43;43.22
54236;BME280;40151;43.606;1.472;2023-03-04T14:44:40;99756.59;;;17.42;43.41
54236;BME280;40151;43.606;1.472;2023-03-04T14:47:24;99756.47;;;17.45;43.48